createdAt,value
2022-10-28T00:02:06.471Z,13.90
2022-10-28T00:04:53.596Z,13.90
2022-10-28T00:07:41.118Z,13.90
2022-10-28T00:10:28.317Z,13.80
2022-10-28T00:13:15.471Z,13.70
2022-10-28T00:16:09.139Z,13.70
2022-10-28T00:18:56.837Z,13.80
2022-10-28T00:21:45.270Z,13.80
2022-10-28T00:24:32.706Z,13.90
2022-10-28T00:27:20.097Z,13.90
2022-10-28T00:30:08.303Z,13.90
2022-10-28T00:32:55.923Z,13.70
2022-10-28T00:35:43.310Z,13.60
2022-10-28T00:38:32.010Z,13.60
2022-10-28T00:41:22.514Z,13.70
2022-10-28T00:44:41.985Z,13.80
2022-10-28T00:47:55.976Z,13.90
2022-10-28T00:50:52.058Z,14.00
2022-10-28T00:53:42.046Z,13.80
2022-10-28T00:56:32.677Z,13.80
2022-10-28T00:59:29.269Z,13.90
2022-10-28T01:02:17.119Z,13.90
2022-10-28T01:05:05.075Z,14.00
2022-10-28T01:07:54.959Z,14.00
2022-10-28T01:10:51.567Z,14.00
2022-10-28T01:13:47.914Z,13.90
2022-10-28T01:16:38.327Z,13.90
2022-10-28T01:20:03.247Z,13.90
2022-10-28T01:22:56.734Z,13.90
2022-10-28T01:26:17.246Z,13.90
2022-10-28T01:29:16.572Z,13.80
2022-10-28T01:32:12.871Z,13.90
2022-10-28T01:35:09.232Z,14.00
2022-10-28T01:38:14.259Z,14.10
2022-10-28T01:41:13.899Z,14.20
2022-10-28T01:44:28.689Z,14.30
2022-10-28T01:47:21.652Z,14.30
2022-10-28T01:50:30.036Z,14.30
2022-10-28T01:53:20.684Z,14.30
2022-10-28T01:56:11.075Z,14.30
2022-10-28T01:59:01.338Z,14.30
2022-10-28T02:01:48.879Z,14.40
2022-10-28T02:04:36.062Z,14.50
2022-10-28T02:07:23.607Z,14.60
2022-10-28T02:10:17.061Z,14.50
2022-10-28T02:13:07.343Z,14.50
2022-10-28T02:16:00.763Z,14.50
2022-10-28T02:19:02.704Z,14.60
2022-10-28T02:21:58.944Z,14.70
2022-10-28T02:24:51.973Z,14.70
2022-10-28T02:27:42.352Z,14.70
2022-10-28T02:30:32.539Z,14.80
2022-10-28T02:33:29.221Z,15.00
2022-10-28T02:36:19.934Z,15.10
2022-10-28T02:39:08.413Z,15.00
2022-10-28T02:42:13.703Z,14.90
2022-10-28T02:45:04.231Z,15.00
2022-10-28T02:47:54.391Z,15.10
2022-10-28T02:50:44.832Z,15.10
2022-10-28T02:53:35.162Z,15.10
2022-10-28T02:56:23.048Z,15.10
2022-10-28T02:59:12.727Z,15.20
2022-10-28T03:02:00.169Z,15.30
2022-10-28T03:04:47.771Z,15.40
2022-10-28T03:07:34.953Z,15.40
2022-10-28T03:10:22.387Z,15.40
2022-10-28T03:13:10.036Z,15.40
2022-10-28T03:15:57.113Z,15.40
2022-10-28T03:18:44.437Z,15.40
2022-10-28T03:21:31.888Z,15.40
2022-10-28T03:24:19.240Z,15.40
2022-10-28T03:27:06.728Z,15.60
2022-10-28T03:29:54.246Z,15.60
2022-10-28T03:32:44.904Z,15.70
2022-10-28T03:35:32.568Z,15.70
2022-10-28T03:38:20.054Z,15.80
2022-10-28T03:41:07.519Z,15.60
2022-10-28T03:43:55.112Z,15.60
2022-10-28T03:46:42.324Z,15.80
2022-10-28T03:49:29.815Z,15.90
2022-10-28T03:52:17.275Z,16.00
2022-10-28T03:55:04.958Z,16.00
2022-10-28T03:57:52.940Z,16.10
2022-10-28T04:00:40.319Z,16.10
2022-10-28T04:03:27.810Z,16.00
2022-10-28T04:06:16.689Z,15.90
2022-10-28T04:09:04.260Z,16.00
2022-10-28T04:11:51.455Z,16.00
2022-10-28T04:14:38.839Z,16.00
2022-10-28T04:17:26.035Z,16.10
2022-10-28T04:20:13.248Z,16.30
2022-10-28T04:23:01.012Z,16.40
2022-10-28T04:25:56.433Z,16.40
2022-10-28T04:28:43.657Z,16.30
2022-10-28T04:31:31.023Z,16.40
2022-10-28T04:34:18.626Z,16.50
2022-10-28T04:37:06.018Z,16.40
2022-10-28T04:39:53.457Z,16.40
2022-10-28T04:42:40.733Z,16.30
2022-10-28T04:45:28.220Z,16.30
2022-10-28T04:48:17.706Z,16.40
2022-10-28T04:51:05.380Z,16.40
2022-10-28T04:53:52.778Z,16.40
2022-10-28T04:56:39.682Z,16.40
2022-10-28T04:59:26.895Z,16.30
2022-10-28T05:02:14.537Z,16.20
2022-10-28T05:05:03.513Z,16.20
2022-10-28T05:07:50.863Z,16.20
2022-10-28T05:10:38.068Z,16.20
2022-10-28T05:13:25.291Z,16.20
2022-10-28T05:16:12.867Z,16.20
2022-10-28T05:19:00.546Z,16.20
2022-10-28T05:21:48.161Z,16.10
2022-10-28T05:24:35.691Z,16.20
2022-10-28T05:27:22.950Z,16.10
2022-10-28T05:30:11.821Z,16.10
2022-10-28T05:33:03.163Z,16.00
2022-10-28T05:35:50.747Z,15.90
2022-10-28T05:38:39.945Z,15.70
2022-10-28T05:41:27.393Z,15.60
2022-10-28T05:44:14.605Z,15.60
2022-10-28T05:47:02.241Z,15.40
2022-10-28T05:49:49.748Z,15.20
2022-10-28T05:52:36.983Z,15.10
2022-10-28T05:55:28.265Z,14.90
2022-10-28T05:58:16.767Z,14.70
2022-10-28T06:01:08.917Z,14.70
2022-10-28T06:03:56.132Z,14.70
2022-10-28T06:06:43.382Z,14.60
2022-10-28T06:09:30.694Z,14.60
2022-10-28T06:12:17.225Z,14.60
2022-10-28T06:15:05.039Z,14.60
2022-10-28T06:17:52.475Z,14.60
2022-10-28T06:20:39.781Z,14.60
2022-10-28T06:23:27.798Z,14.60
2022-10-28T06:26:15.379Z,14.70
2022-10-28T06:29:02.885Z,14.80
2022-10-28T06:31:50.688Z,14.80
2022-10-28T06:34:37.987Z,14.90
2022-10-28T06:37:25.542Z,14.90
2022-10-28T06:40:13.084Z,14.90
2022-10-28T06:43:05.856Z,14.90
2022-10-28T06:45:55.828Z,15.00
2022-10-28T06:48:44.675Z,15.10
2022-10-28T06:51:32.681Z,15.10
2022-10-28T06:54:20.129Z,15.30
2022-10-28T06:57:07.502Z,15.40
2022-10-28T06:59:55.253Z,15.50
2022-10-28T07:02:45.081Z,15.60
2022-10-28T07:05:31.551Z,15.70
2022-10-28T07:08:19.802Z,15.70
2022-10-28T07:11:07.094Z,15.80
2022-10-28T07:13:54.295Z,15.90
2022-10-28T07:16:42.595Z,15.90
2022-10-28T07:19:30.018Z,15.90
2022-10-28T07:22:17.540Z,16.00
2022-10-28T07:25:05.280Z,16.10
2022-10-28T07:27:53.085Z,16.10
2022-10-28T07:30:40.647Z,16.20
2022-10-28T07:33:28.130Z,16.30
2022-10-28T07:36:15.371Z,16.30
2022-10-28T07:39:03.086Z,16.30
2022-10-28T07:41:50.380Z,16.50
2022-10-28T07:44:37.648Z,16.60
2022-10-28T07:47:24.537Z,16.50
2022-10-28T07:50:12.380Z,16.50
2022-10-28T07:53:00.318Z,16.60
2022-10-28T07:55:59.041Z,16.70
2022-10-28T07:58:46.627Z,16.90
2022-10-28T08:01:34.146Z,17.00
2022-10-28T08:04:21.491Z,17.10
2022-10-28T08:07:09.034Z,17.30
2022-10-28T08:09:56.340Z,17.50
2022-10-28T08:12:43.705Z,17.60
2022-10-28T08:15:31.252Z,17.80
2022-10-28T08:18:18.700Z,17.90
2022-10-28T08:21:08.014Z,18.00
2022-10-28T08:23:56.167Z,18.20
2022-10-28T08:26:43.510Z,18.30
2022-10-28T08:29:30.987Z,18.40
2022-10-28T08:32:18.217Z,18.50
2022-10-28T08:35:05.637Z,18.60
2022-10-28T08:37:53.737Z,18.60
2022-10-28T08:41:00.819Z,18.70
2022-10-28T08:44:09.479Z,18.80
2022-10-28T08:47:12.032Z,18.70
2022-10-28T08:50:11.679Z,18.80
2022-10-28T08:53:18.885Z,18.60
2022-10-28T08:56:09.605Z,18.50
2022-10-28T08:59:00.315Z,18.50
2022-10-28T09:01:59.725Z,18.60
2022-10-28T09:04:48.458Z,18.70
2022-10-28T09:07:37.825Z,18.80
2022-10-28T09:10:43.774Z,18.90
2022-10-28T09:13:46.125Z,18.90
2022-10-28T09:16:48.136Z,19.00
2022-10-28T09:19:47.096Z,19.10
2022-10-28T09:23:01.803Z,19.20
2022-10-28T09:25:58.332Z,19.20
2022-10-28T09:32:03.942Z,19.20
2022-10-28T09:34:54.190Z,19.20
2022-10-28T09:37:50.369Z,19.60
2022-10-28T09:40:39.792Z,19.70
2022-10-28T09:43:38.189Z,20.30
2022-10-28T09:46:31.947Z,20.70
2022-10-28T09:49:21.614Z,20.60
2022-10-28T09:52:30.115Z,20.80
2022-10-28T09:55:22.612Z,20.90
2022-10-28T09:58:12.894Z,20.90
2022-10-28T10:01:00.096Z,21.00
2022-10-28T10:03:49.822Z,21.00
2022-10-28T10:06:42.199Z,21.00
2022-10-28T10:09:32.517Z,20.70
2022-10-28T10:12:22.324Z,20.60
2022-10-28T10:15:12.279Z,20.50
2022-10-28T10:18:01.821Z,20.30
2022-10-28T10:20:55.922Z,20.20
2022-10-28T10:23:43.460Z,20.50
2022-10-28T10:26:33.778Z,20.60
2022-10-28T10:29:23.211Z,20.50
2022-10-28T10:32:16.376Z,20.80
2022-10-28T10:35:10.095Z,20.90
2022-10-28T10:38:00.026Z,21.10
2022-10-28T10:40:53.110Z,21.30
2022-10-28T10:43:40.770Z,21.30
2022-10-28T10:46:28.690Z,21.40
2022-10-28T10:49:16.810Z,21.40
2022-10-28T10:52:08.966Z,21.60
2022-10-28T10:55:05.867Z,21.80
2022-10-28T10:57:56.489Z,22.10
2022-10-28T11:00:52.975Z,22.40
2022-10-28T11:03:55.313Z,22.70
2022-10-28T11:06:45.149Z,22.60
2022-10-28T11:09:38.509Z,22.70
2022-10-28T11:12:29.112Z,22.70
2022-10-28T11:15:26.033Z,22.90
2022-10-28T11:18:19.846Z,23.00
2022-10-28T11:21:16.043Z,23.30
2022-10-28T11:24:06.456Z,23.30
2022-10-28T11:27:05.840Z,23.40
2022-10-28T11:29:58.607Z,23.50
2022-10-28T11:33:08.447Z,23.50
2022-10-28T11:35:58.270Z,23.60
2022-10-28T11:39:08.341Z,23.60
2022-10-28T11:42:13.630Z,23.90
2022-10-28T11:45:18.610Z,23.90
2022-10-28T11:48:26.612Z,24.00
2022-10-28T11:51:20.355Z,24.20
2022-10-28T11:54:28.713Z,24.30
2022-10-28T11:57:19.458Z,24.40
2022-10-28T12:00:37.427Z,24.10
2022-10-28T12:03:48.721Z,24.00
2022-10-28T12:06:54.262Z,23.60
2022-10-28T12:10:07.566Z,23.60
2022-10-28T12:13:09.835Z,23.40
2022-10-28T12:16:06.329Z,23.40
2022-10-28T12:19:02.871Z,23.60
2022-10-28T12:21:52.930Z,23.80
2022-10-28T12:24:42.601Z,24.00
2022-10-28T12:27:32.922Z,24.20
2022-10-28T12:30:32.476Z,24.20
2022-10-28T12:33:25.380Z,24.20
2022-10-28T12:36:17.340Z,24.30
2022-10-28T12:39:07.643Z,24.40
2022-10-28T12:42:16.685Z,24.50
2022-10-28T12:45:07.010Z,24.40
2022-10-28T12:48:00.660Z,24.50
2022-10-28T12:50:57.139Z,24.40
2022-10-28T12:54:02.875Z,24.50
2022-10-28T12:56:53.349Z,24.50
2022-10-28T12:59:46.598Z,24.40
2022-10-28T13:02:37.080Z,24.20
2022-10-28T13:05:27.190Z,24.10
2022-10-28T13:08:29.388Z,23.90
2022-10-28T13:11:31.648Z,23.80
2022-10-28T13:14:46.038Z,23.80
2022-10-28T13:17:36.734Z,23.70
2022-10-28T13:20:48.282Z,23.50
2022-10-28T13:23:41.601Z,23.60
2022-10-28T13:26:38.049Z,23.60
2022-10-28T13:29:31.239Z,23.70
2022-10-28T13:32:38.646Z,23.70
2022-10-28T13:35:28.077Z,23.60
2022-10-28T13:38:18.499Z,23.70
2022-10-28T13:41:08.811Z,23.80
2022-10-28T13:43:58.746Z,24.00
2022-10-28T13:47:01.693Z,24.00
2022-10-28T13:50:11.861Z,24.00
2022-10-28T13:53:31.022Z,24.00
2022-10-28T13:56:30.371Z,24.00
2022-10-28T13:59:26.640Z,24.00
2022-10-28T14:02:34.652Z,23.80
2022-10-28T14:05:12.350Z,23.60
2022-10-28T14:08:08.768Z,23.60
2022-10-28T14:11:17.151Z,23.50
2022-10-28T14:14:05.393Z,23.50
2022-10-28T14:16:53.339Z,23.50
2022-10-28T14:19:48.561Z,23.60
2022-10-28T14:22:37.424Z,23.60
2022-10-28T14:25:44.751Z,23.70
2022-10-28T14:28:35.354Z,23.70
2022-10-28T14:31:40.277Z,23.60
2022-10-28T14:34:33.350Z,23.80
2022-10-28T14:37:28.519Z,23.90
2022-10-28T14:40:27.188Z,23.80
2022-10-28T14:43:30.660Z,23.60
2022-10-28T14:46:37.697Z,23.50
2022-10-28T14:49:33.202Z,23.20
2022-10-28T14:52:22.902Z,23.00
2022-10-28T14:55:27.965Z,22.90
2022-10-28T14:58:26.841Z,22.90
2022-10-28T15:01:23.459Z,22.90
2022-10-28T15:04:14.436Z,22.90
2022-10-28T15:07:01.835Z,22.70
2022-10-28T15:09:52.835Z,22.70
2022-10-28T15:12:39.986Z,22.60
2022-10-28T15:15:32.838Z,22.60
2022-10-28T15:18:25.698Z,22.60
2022-10-28T15:21:15.766Z,22.60
2022-10-28T15:24:05.058Z,22.50
2022-10-28T15:26:57.471Z,22.50
2022-10-28T15:29:44.914Z,22.60
2022-10-28T15:32:36.614Z,22.50
2022-10-28T15:35:38.760Z,22.60
2022-10-28T15:38:32.437Z,22.60
2022-10-28T15:41:48.405Z,22.50
2022-10-28T15:44:40.227Z,22.50
2022-10-28T15:47:35.709Z,22.40
2022-10-28T15:50:29.100Z,22.50
2022-10-28T15:53:25.154Z,22.40
2022-10-28T15:56:24.496Z,22.30
2022-10-28T15:59:26.196Z,22.20
2022-10-28T16:02:41.027Z,22.10
2022-10-28T16:05:41.664Z,21.90
2022-10-28T16:08:31.756Z,21.80
2022-10-28T16:11:22.316Z,21.60
2022-10-28T16:14:29.479Z,21.50
2022-10-28T16:17:22.243Z,21.30
2022-10-28T16:20:18.333Z,21.20
2022-10-28T16:23:04.124Z,21.00
2022-10-28T16:25:51.741Z,21.00
2022-10-28T16:28:44.921Z,20.90
2022-10-28T16:31:30.994Z,20.80
2022-10-28T16:34:18.566Z,20.60
2022-10-28T16:37:11.851Z,20.50
2022-10-28T16:39:59.613Z,20.40
2022-10-28T16:42:47.441Z,20.40
2022-10-28T16:45:34.636Z,20.30
2022-10-28T16:48:24.715Z,20.30
2022-10-28T16:51:16.107Z,20.20
2022-10-28T16:54:03.283Z,20.20
2022-10-28T16:56:51.285Z,20.10
2022-10-28T16:59:38.601Z,20.00
2022-10-28T17:02:36.519Z,19.90
2022-10-28T17:05:25.226Z,19.90
2022-10-28T17:08:13.001Z,19.80
2022-10-28T17:11:00.720Z,19.80
2022-10-28T17:13:48.011Z,19.70
2022-10-28T17:16:38.003Z,19.60
2022-10-28T17:19:26.338Z,19.60
2022-10-28T17:22:14.737Z,19.50
2022-10-28T17:25:01.937Z,19.50
2022-10-28T17:27:49.583Z,19.40
2022-10-28T17:30:36.859Z,19.30
2022-10-28T17:33:23.810Z,19.30
2022-10-28T17:36:11.247Z,19.30
2022-10-28T17:38:58.526Z,19.30
2022-10-28T17:41:46.003Z,19.20
2022-10-28T17:44:33.529Z,19.20
2022-10-28T17:47:23.085Z,19.10
2022-10-28T17:50:10.507Z,19.10
2022-10-28T17:52:58.019Z,19.20
2022-10-28T17:55:45.073Z,19.20
2022-10-28T17:58:33.435Z,19.20
2022-10-28T18:01:21.644Z,19.10
2022-10-28T18:04:09.144Z,19.20
2022-10-28T18:06:58.241Z,19.20
2022-10-28T18:09:45.966Z,19.30
2022-10-28T18:12:33.342Z,19.30
2022-10-28T18:15:22.246Z,19.20
2022-10-28T18:18:09.659Z,19.20
2022-10-28T18:20:57.386Z,19.10
2022-10-28T18:23:44.583Z,19.00
2022-10-28T18:26:33.526Z,19.00
2022-10-28T18:29:21.252Z,18.90
2022-10-28T18:32:08.605Z,18.80
2022-10-28T18:34:55.953Z,18.70
2022-10-28T18:37:43.425Z,18.70
2022-10-28T18:40:31.054Z,18.50
2022-10-28T18:43:18.427Z,18.40
2022-10-28T18:46:05.740Z,18.40
2022-10-28T18:48:56.176Z,18.30
2022-10-28T18:51:43.439Z,18.30
2022-10-28T18:54:30.897Z,18.20
2022-10-28T18:57:19.137Z,18.20
2022-10-28T19:00:22.148Z,18.20
2022-10-28T19:02:57.068Z,18.10
2022-10-28T19:05:44.416Z,18.10
2022-10-28T19:08:32.008Z,18.10
2022-10-28T19:11:20.012Z,18.10
2022-10-28T19:14:08.403Z,18.10
2022-10-28T19:16:55.868Z,18.00
2022-10-28T19:19:43.453Z,18.00
2022-10-28T19:22:30.933Z,18.00
2022-10-28T19:25:18.517Z,17.90
2022-10-28T19:28:06.449Z,17.60
2022-10-28T19:31:05.328Z,17.50
2022-10-28T19:33:56.385Z,17.60
2022-10-28T19:36:44.081Z,17.70
2022-10-28T19:39:30.971Z,17.80
2022-10-28T19:42:18.496Z,17.70
2022-10-28T19:45:06.899Z,17.50
2022-10-28T19:47:54.421Z,17.40
2022-10-28T19:50:44.655Z,17.40
2022-10-28T19:53:32.057Z,17.50
2022-10-28T19:56:21.615Z,17.40
2022-10-28T19:59:09.402Z,17.60
2022-10-28T20:01:56.894Z,17.50
2022-10-28T20:04:44.984Z,17.50
2022-10-28T20:07:32.498Z,17.70
2022-10-28T20:10:21.353Z,17.80
2022-10-28T20:13:09.875Z,17.80
2022-10-28T20:15:57.432Z,17.90
2022-10-28T20:18:44.402Z,17.90
2022-10-28T20:21:33.826Z,18.00
2022-10-28T20:24:23.890Z,18.00
2022-10-28T20:27:11.369Z,17.90
2022-10-28T20:29:59.717Z,17.90
2022-10-28T20:32:47.496Z,17.90
2022-10-28T20:35:36.112Z,17.90
2022-10-28T20:38:24.149Z,17.90
2022-10-28T20:41:11.906Z,17.90
2022-10-28T20:43:59.900Z,17.90
2022-10-28T20:46:48.018Z,17.90
2022-10-28T20:49:35.656Z,17.90
2022-10-28T20:55:10.240Z,17.80
2022-10-28T20:57:57.650Z,17.80
2022-10-28T21:00:44.878Z,17.70
2022-10-28T21:03:32.283Z,17.70
2022-10-28T21:06:19.775Z,17.80
2022-10-28T21:09:08.748Z,17.80
2022-10-28T21:11:55.979Z,17.80
2022-10-28T21:14:43.513Z,17.80
2022-10-28T21:17:31.447Z,17.80
2022-10-28T21:20:19.020Z,17.80
2022-10-28T21:23:07.018Z,17.80
2022-10-28T21:26:02.349Z,17.80
2022-10-28T21:28:51.809Z,17.70
2022-10-28T21:31:39.084Z,17.60
2022-10-28T21:34:26.845Z,17.50
2022-10-28T21:37:14.343Z,17.30
2022-10-28T21:40:01.719Z,17.20
2022-10-28T21:42:52.143Z,17.20
2022-10-28T21:45:44.541Z,17.20
2022-10-28T21:48:32.272Z,17.30
2022-10-28T21:51:20.205Z,17.40
2022-10-28T21:54:07.820Z,17.60
2022-10-28T21:56:55.308Z,17.70
2022-10-28T21:59:42.733Z,17.80
2022-10-28T22:02:30.183Z,17.90
2022-10-28T22:05:17.769Z,17.90
2022-10-28T22:08:05.779Z,18.00
2022-10-28T22:11:05.234Z,17.70
2022-10-28T22:14:05.104Z,17.60
2022-10-28T22:16:52.478Z,17.60
2022-10-28T22:19:39.969Z,17.60
2022-10-28T22:22:28.961Z,17.60
2022-10-28T22:25:16.550Z,17.70
2022-10-28T22:28:03.996Z,17.60
2022-10-28T22:30:51.427Z,17.50
2022-10-28T22:33:39.648Z,17.40
2022-10-28T22:36:29.207Z,17.30
2022-10-28T22:39:16.848Z,17.20
2022-10-28T22:42:04.463Z,17.10
2022-10-28T22:44:52.032Z,17.20
2022-10-28T22:47:39.496Z,17.30
2022-10-28T22:50:26.715Z,17.40
2022-10-28T22:53:13.958Z,17.40
2022-10-28T22:56:01.609Z,17.50
2022-10-28T22:58:51.562Z,17.50
2022-10-28T23:01:39.790Z,17.30
2022-10-28T23:04:27.059Z,17.30
2022-10-28T23:07:14.230Z,17.30
2022-10-28T23:10:01.939Z,17.30
2022-10-28T23:12:50.900Z,17.40
2022-10-28T23:15:37.901Z,17.20
2022-10-28T23:18:28.363Z,17.10
2022-10-28T23:21:18.965Z,17.10
2022-10-28T23:24:06.729Z,17.10
2022-10-28T23:26:54.140Z,17.10
2022-10-28T23:29:41.431Z,17.10
2022-10-28T23:32:30.299Z,17.20
2022-10-28T23:35:17.853Z,17.10
2022-10-28T23:38:05.378Z,17.00
2022-10-28T23:41:00.915Z,17.00
2022-10-28T23:43:49.344Z,16.80
2022-10-28T23:46:37.661Z,16.80
2022-10-28T23:49:24.680Z,16.80
2022-10-28T23:52:11.919Z,16.80
2022-10-28T23:54:59.165Z,16.70
2022-10-28T23:57:46.607Z,16.70
